createdAt,value
2022-11-26T17:40:51.839Z,22.13
2022-11-26T17:43:19.624Z,18.93
2022-11-26T17:45:47.580Z,17.63
2022-11-26T17:48:15.412Z,15.50
2022-11-26T17:50:43.447Z,17.80
2022-11-26T17:53:11.989Z,18.33
2022-11-26T17:55:40.170Z,18.63
2022-11-26T17:58:10.461Z,16.57
2022-11-26T18:01:44.065Z,13.53
2022-11-26T18:04:12.089Z,19.33
2022-11-26T18:06:53.914Z,15.70
2022-11-26T18:09:21.935Z,16.83
2022-11-26T18:11:51.624Z,19.23
2022-11-26T18:14:19.741Z,17.40
2022-11-26T18:16:49.769Z,15.03
2022-11-26T18:19:19.448Z,21.60
2022-11-26T18:21:47.539Z,19.37
2022-11-26T18:24:15.370Z,21.80
2022-11-26T18:26:43.765Z,23.00
2022-11-26T18:29:12.137Z,15.40
2022-11-26T18:31:40.198Z,13.30
2022-11-26T18:34:09.825Z,17.83
2022-11-26T18:36:37.717Z,20.57
2022-11-26T18:39:06.392Z,14.57
2022-11-26T18:41:34.744Z,12.43
2022-11-26T18:44:04.047Z,20.70
2022-11-26T18:46:32.748Z,28.40
2022-11-26T18:49:00.724Z,15.27
2022-11-26T18:51:30.229Z,15.07
2022-11-26T18:53:58.176Z,15.37
2022-11-26T18:56:26.236Z,16.63
2022-11-26T18:58:54.257Z,20.80
2022-11-26T19:01:24.241Z,28.87
2022-11-26T19:03:52.879Z,15.40
2022-11-26T19:06:22.722Z,21.70
2022-11-26T19:08:57.253Z,29.63
2022-11-26T19:11:26.433Z,18.40
2022-11-26T19:13:56.020Z,17.97
2022-11-26T19:16:25.315Z,17.93
2022-11-26T19:18:53.623Z,21.93
2022-11-26T19:21:24.322Z,21.80
2022-11-26T19:23:54.913Z,23.03
2022-11-26T19:26:23.583Z,31.80
2022-11-26T19:28:52.311Z,14.73
2022-11-26T19:31:24.604Z,14.87
2022-11-26T19:33:58.292Z,22.33
2022-11-26T19:36:27.672Z,17.77
2022-11-26T19:38:58.569Z,12.83
2022-11-26T19:41:27.553Z,13.87
2022-11-26T19:43:56.384Z,18.47
2022-11-26T19:46:26.092Z,21.63
2022-11-26T19:48:55.905Z,14.57
2022-11-26T19:51:26.481Z,15.63
2022-11-26T19:53:57.159Z,16.50
2022-11-26T19:56:26.980Z,25.13
2022-11-26T19:58:58.308Z,30.17
2022-11-26T20:01:30.618Z,20.70
2022-11-26T20:04:00.844Z,16.37
2022-11-26T20:06:30.113Z,22.50
2022-11-26T20:09:00.264Z,23.60
2022-11-26T20:11:29.248Z,14.83
2022-11-26T20:13:58.361Z,18.53
2022-11-26T20:16:28.599Z,20.60
2022-11-26T20:18:57.188Z,17.70
2022-11-26T20:21:27.321Z,16.57
2022-11-26T20:23:58.342Z,16.90
2022-11-26T20:26:29.630Z,22.20
2022-11-26T20:29:01.108Z,19.83
2022-11-26T20:31:30.000Z,20.00
2022-11-26T20:33:58.587Z,15.13
2022-11-26T20:36:26.663Z,18.70
2022-11-26T20:38:55.997Z,25.17
2022-11-26T20:41:26.418Z,17.63
2022-11-26T20:43:58.968Z,16.97
2022-11-26T20:46:28.288Z,21.83
2022-11-26T20:48:57.071Z,19.60
2022-11-26T20:51:25.607Z,25.00
2022-11-26T20:53:54.879Z,21.93
2022-11-26T20:56:23.776Z,21.03
2022-11-26T20:58:53.923Z,18.67
2022-11-26T21:01:25.451Z,22.63
2022-11-26T21:03:54.201Z,26.90
2022-11-26T21:06:29.532Z,19.70
2022-11-26T21:08:58.333Z,19.23
2022-11-26T21:11:26.369Z,19.37
2022-11-26T21:13:54.283Z,22.63
2022-11-26T21:16:23.807Z,26.67
2022-11-26T21:18:54.550Z,18.60
2022-11-26T21:21:23.643Z,30.17
2022-11-26T21:23:55.102Z,19.70
2022-11-26T21:26:24.834Z,20.20
2022-11-26T21:28:54.614Z,23.92
2022-11-26T21:31:25.030Z,25.07
2022-11-26T21:33:56.326Z,22.47
2022-11-26T21:36:25.207Z,27.83
2022-11-26T21:38:53.054Z,25.60
2022-11-26T21:41:21.632Z,29.30
2022-11-26T21:43:50.501Z,23.10
2022-11-26T21:46:21.633Z,24.63
2022-11-26T21:48:52.807Z,28.10
2022-11-26T21:51:21.502Z,32.20
2022-11-26T21:53:50.003Z,31.37
2022-11-26T21:56:19.798Z,44.30
2022-11-26T21:58:48.026Z,41.73
2022-11-26T22:01:18.080Z,31.73
2022-11-26T22:03:47.731Z,32.50
2022-11-26T22:06:18.254Z,27.47
2022-11-26T22:08:47.384Z,31.47
2022-11-26T22:11:18.126Z,32.33
2022-11-26T22:13:46.243Z,27.23
2022-11-26T22:16:17.738Z,30.67
2022-11-26T22:18:46.818Z,29.43
2022-11-26T22:21:16.742Z,43.77
2022-11-26T22:23:46.066Z,34.20
2022-11-26T22:26:14.481Z,23.80
2022-11-26T22:28:42.677Z,28.80
2022-11-26T22:31:12.533Z,33.50
2022-11-26T22:33:40.467Z,33.40
2022-11-26T22:36:08.897Z,43.13
2022-11-26T22:38:38.709Z,27.97
2022-11-26T22:41:09.388Z,30.67
2022-11-26T22:43:37.636Z,39.67
2022-11-26T22:46:05.789Z,29.37
2022-11-26T22:48:34.274Z,26.37
2022-11-26T22:51:02.394Z,39.63
2022-11-26T22:53:31.420Z,29.63
2022-11-26T22:56:01.971Z,38.20
2022-11-26T22:58:32.433Z,33.47
2022-11-26T23:01:02.461Z,31.50
2022-11-26T23:03:32.904Z,28.37
2022-11-26T23:06:04.466Z,31.40
2022-11-26T23:08:32.267Z,36.70
2022-11-26T23:11:00.888Z,31.90
2022-11-26T23:13:28.817Z,32.33
2022-11-26T23:15:58.371Z,27.30
2022-11-26T23:18:26.621Z,36.60
2022-11-26T23:21:03.820Z,36.80
2022-11-26T23:23:31.854Z,32.53
2022-11-26T23:26:01.998Z,30.63
2022-11-26T23:28:29.917Z,34.73
2022-11-26T23:31:02.705Z,36.03
2022-11-26T23:33:30.810Z,30.13
2022-11-26T23:35:59.330Z,29.27
2022-11-26T23:38:27.156Z,35.60
2022-11-26T23:40:55.468Z,28.70
2022-11-26T23:43:23.804Z,33.80
2022-11-26T23:45:51.891Z,33.27
2022-11-26T23:48:21.174Z,32.17
2022-11-26T23:50:49.044Z,33.50
2022-11-26T23:53:16.875Z,29.00
2022-11-26T23:55:44.833Z,45.27
2022-11-26T23:58:15.322Z,34.60
